Time;durP1;ratioP1;P1;durP2;ratioP2;P2;SDS_P1;SDS_P2;PMS_P1;PMS_P2;Temp;Humidity;BMP_temperature;BMP_pressure;BME280_temperature;BME280_humidity;BME280_pressure;Samples;Min_cycle;Max_cycle;Signal;HPM_P1;HPM_P2
2021/11/20 00:02:32;;;;;;;10.70;5.33;;;9.50;99.90;;;;;;5059786;28;20471;-83
2021/11/20 00:05:24;;;;;;;7.50;4.97;;;9.50;99.90;;;;;;5065403;28;20449;-82
2021/11/20 00:08:13;;;;;;;10.30;5.13;;;9.50;99.90;;;;;;5068632;28;20447;-81
2021/11/20 00:11:05;;;;;;;9.43;6.03;;;9.50;1.00;;;;;;5069204;28;21009;-80
2021/11/20 00:13:54;;;;;;;11.37;4.67;;;9.30;99.90;;;;;;5063230;28;20445;-80
2021/11/20 00:16:45;;;;;;;12.60;5.90;;;9.20;1.00;;;;;;5064909;28;20470;-79
2021/11/20 00:19:36;;;;;;;11.23;6.30;;;9.30;99.90;;;;;;5062733;28;20419;-80
2021/11/20 00:22:28;;;;;;;8.10;5.33;;;9.10;1.00;;;;;;5069900;28;20448;-80
2021/11/20 00:25:22;;;;;;;10.57;6.90;;;9.10;66.20;;;;;;5056617;28;20456;-81
2021/11/20 00:28:16;;;;;;;10.67;6.13;;;9.20;1.00;;;;;;5057463;28;20988;-81
2021/11/20 00:31:06;;;;;;;12.10;6.53;;;9.30;99.90;;;;;;5057477;28;20477;-82
2021/11/20 00:33:55;;;;;;;11.60;6.50;;;9.30;99.90;;;;;;5060957;28;20445;-85
2021/11/20 00:36:47;;;;;;;10.33;6.27;;;9.40;46.10;;;;;;5062430;28;20466;-83
2021/11/20 00:39:36;;;;;;;9.30;5.47;;;9.30;84.50;;;;;;5063221;28;20481;-83
2021/11/20 00:42:25;;;;;;;8.90;5.90;;;9.30;99.90;;;;;;5059612;28;20465;-81
2021/11/20 00:45:14;;;;;;;10.73;5.83;;;9.30;85.70;;;;;;5072669;28;20444;-81
2021/11/20 00:48:05;;;;;;;10.43;5.70;;;9.30;16.00;;;;;;5071807;28;20828;-84
2021/11/20 00:50:57;;;;;;;8.67;5.77;;;8.90;1.00;;;;;;5072028;28;20838;-82
2021/11/20 00:53:47;;;;;;;13.03;6.00;;;8.90;99.90;;;;;;5074031;28;20466;-84
2021/11/20 00:56:36;;;;;;;11.00;5.93;;;8.70;99.90;;;;;;5069965;28;20449;-82
2021/11/20 00:59:25;;;;;;;10.03;4.30;;;8.90;99.90;;;;;;5059121;28;20445;-82
2021/11/20 01:02:15;;;;;;;9.27;4.93;;;9.00;1.00;;;;;;5059104;28;20465;-85
2021/11/20 01:05:05;;;;;;;10.37;4.60;;;8.80;99.90;;;;;;5061655;28;20445;-81
2021/11/20 01:07:54;;;;;;;9.50;4.93;;;8.80;90.70;;;;;;5074064;28;20984;-82
2021/11/20 01:10:46;;;;;;;9.60;5.00;;;8.80;99.90;;;;;;5062389;28;20501;-81
2021/11/20 01:13:36;;;;;;;9.93;4.83;;;8.60;1.00;;;;;;5062514;28;20439;-82
2021/11/20 01:16:26;;;;;;;8.70;5.17;;;8.60;1.00;;;;;;5061753;28;20464;-82
2021/11/20 01:19:15;;;;;;;7.40;4.73;;;8.60;1.00;;;;;;5053433;28;20562;-82
2021/11/20 01:22:06;;;;;;;8.87;4.87;;;8.60;99.90;;;;;;5059768;28;20460;-80
2021/11/20 01:24:56;;;;;;;9.03;4.77;;;8.60;99.90;;;;;;5055966;28;20438;-80
2021/11/20 01:27:46;;;;;;;9.70;5.50;;;8.60;99.90;;;;;;5064259;28;20535;-79
2021/11/20 01:30:35;;;;;;;12.60;4.83;;;8.40;99.90;;;;;;5060255;28;20430;-83
2021/11/20 01:33:24;;;;;;;15.30;5.27;;;8.50;1.00;;;;;;5070485;28;20593;-79
2021/11/20 01:36:44;;;;;;;11.50;5.30;;;8.50;99.90;;;;;;6195373;22;20440;31
2021/11/20 01:39:14;;;;;;;8.47;4.10;;;8.60;91.00;;;;;;4941032;28;20495;-81
2021/11/20 01:41:47;;;;;;;12.40;6.23;;;8.80;99.90;;;;;;4933536;29;20472;-80
2021/11/20 01:44:19;;;;;;;9.70;4.50;;;9.00;1.00;;;;;;4957732;28;20477;-81
2021/11/20 01:46:52;;;;;;;8.53;5.83;;;9.10;99.90;;;;;;4954805;29;21029;-81
2021/11/20 01:49:24;;;;;;;14.20;6.07;;;9.00;99.90;;;;;;4956791;29;20957;-81
2021/11/20 01:51:54;;;;;;;15.33;6.20;;;8.90;1.00;;;;;;4953488;28;20470;-81
2021/11/20 01:54:39;;;;;;;11.03;5.03;;;9.00;1.00;;;;;;4935047;29;20478;-81
2021/11/20 01:57:23;;;;;;;12.03;6.03;;;9.10;99.90;;;;;;4937884;29;21052;-82
2021/11/20 02:00:00;;;;;;;8.73;5.10;;;9.20;99.90;;;;;;4941668;29;20474;-81
2021/11/20 02:02:33;;;;;;;12.60;5.10;;;9.20;99.90;;;;;;4946188;29;20472;-82
2021/11/20 02:05:11;;;;;;;12.27;6.13;;;9.30;16.00;;;;;;4949918;28;20462;-81
2021/11/20 02:07:45;;;;;;;10.90;6.20;;;9.30;1.00;;;;;;4947816;28;20484;-81
2021/11/20 02:10:18;;;;;;;12.23;5.40;;;9.30;1.00;;;;;;4928244;29;20817;-81
2021/11/20 02:12:49;;;;;;;13.17;5.50;;;9.20;1.00;;;;;;4954953;29;20490;-82
2021/11/20 02:15:23;;;;;;;8.63;5.33;;;9.20;99.90;;;;;;4934075;29;20476;-81
2021/11/20 02:17:53;;;;;;;9.00;6.50;;;9.20;99.90;;;;;;4936772;29;20494;-82
2021/11/20 02:20:28;;;;;;;13.10;5.73;;;9.20;98.20;;;;;;4954687;29;20901;-81
2021/11/20 02:22:55;;;;;;;10.93;5.47;;;9.10;99.90;;;;;;4942642;29;20455;-82
2021/11/20 02:25:23;;;;;;;11.20;4.90;;;9.10;99.90;;;;;;4955620;28;20443;-82
2021/11/20 02:27:55;;;;;;;11.63;5.30;;;9.10;99.90;;;;;;4948219;29;20497;-82
2021/11/20 02:30:28;;;;;;;9.30;4.80;;;9.10;99.90;;;;;;4955069;28;20468;-82
2021/11/20 02:32:59;;;;;;;12.60;6.50;;;9.20;99.90;;;;;;4952809;28;20470;-82
2021/11/20 02:35:31;;;;;;;10.53;5.10;;;9.10;99.90;;;;;;4951652;28;20566;-81
2021/11/20 02:38:00;;;;;;;12.50;4.97;;;9.10;93.30;;;;;;4948634;28;20488;-82
2021/11/20 02:40:29;;;;;;;13.23;5.40;;;9.10;99.90;;;;;;4950540;29;20483;-82
2021/11/20 02:42:58;;;;;;;10.37;6.70;;;9.10;99.90;;;;;;4953968;28;20459;-82
2021/11/20 02:45:29;;;;;;;11.37;5.63;;;9.10;99.90;;;;;;4947621;28;20474;-81
2021/11/20 02:47:59;;;;;;;9.77;4.53;;;9.10;99.90;;;;;;4957817;28;20542;-81
2021/11/20 02:50:34;;;;;;;8.70;4.77;;;9.00;99.90;;;;;;4941025;28;20460;-81
2021/11/20 02:53:02;;;;;;;9.60;4.43;;;8.80;1.00;;;;;;4951494;29;20551;-81
2021/11/20 02:55:32;;;;;;;5.57;3.87;;;8.80;1.00;;;;;;4954942;29;20467;-82
2021/11/20 02:58:01;;;;;;;7.03;4.30;;;8.70;1.00;;;;;;4935971;29;20498;-81
2021/11/20 03:00:30;;;;;;;9.00;4.77;;;8.70;1.00;;;;;;4951600;28;20517;-81
2021/11/20 03:02:59;;;;;;;8.43;4.23;;;8.80;1.00;;;;;;4952354;28;20488;-81
2021/11/20 03:05:27;;;;;;;10.80;5.40;;;9.00;99.90;;;;;;4950765;28;20454;-80
2021/11/20 03:07:55;;;;;;;9.07;5.47;;;8.90;99.90;;;;;;4954479;28;20521;-82
2021/11/20 03:10:23;;;;;;;10.10;4.90;;;8.80;1.00;;;;;;4953221;28;20484;-82
2021/11/20 03:12:51;;;;;;;8.03;4.90;;;8.90;1.00;;;;;;4952314;29;20802;-82
2021/11/20 03:15:20;;;;;;;8.57;4.03;;;9.00;90.90;;;;;;4946899;28;20502;-82
2021/11/20 03:17:50;;;;;;;10.53;4.60;;;9.00;91.10;;;;;;4951290;29;20529;-81
2021/11/20 03:20:19;;;;;;;8.40;4.77;;;9.10;1.00;;;;;;4944178;28;20476;-81
2021/11/20 03:22:50;;;;;;;8.40;4.60;;;9.10;1.00;;;;;;4945355;28;20539;-81
2021/11/20 03:25:22;;;;;;;8.40;4.40;;;9.20;1.00;;;;;;4951138;28;20466;-80
2021/11/20 03:27:50;;;;;;;9.87;6.10;;;9.30;1.00;;;;;;4951704;28;20471;-80
2021/11/20 03:30:19;;;;;;;9.90;5.40;;;9.20;1.00;;;;;;4950541;29;20533;-81
2021/11/20 03:32:49;;;;;;;6.53;3.77;;;9.10;1.00;;;;;;4947952;29;21139;-81
2021/11/20 03:35:17;;;;;;;9.90;4.87;;;9.10;9.10;;;;;;4948793;28;20459;-81
2021/11/20 03:37:46;;;;;;;9.43;5.40;;;9.20;1.00;;;;;;4948407;28;20497;-82
2021/11/20 03:40:17;;;;;;;9.50;4.90;;;9.30;1.00;;;;;;4945623;29;20475;-81
2021/11/20 03:42:45;;;;;;;14.63;5.13;;;9.30;1.00;;;;;;4940867;29;20739;-82
2021/11/20 03:45:15;;;;;;;8.73;4.10;;;9.30;1.00;;;;;;4938739;28;20796;-82
2021/11/20 03:47:43;;;;;;;8.47;4.80;;;9.30;1.00;;;;;;4932064;29;20545;-80
2021/11/20 03:50:14;;;;;;;8.57;4.70;;;9.20;1.00;;;;;;4948181;28;20971;-81
2021/11/20 03:52:44;;;;;;;11.17;5.30;;;9.30;1.00;;;;;;4939497;28;20483;-81
2021/11/20 03:55:17;;;;;;;9.53;5.40;;;9.30;1.00;;;;;;4948322;29;20450;-82
2021/11/20 03:57:46;;;;;;;9.37;4.83;;;9.40;1.00;;;;;;4938677;29;21046;-81
2021/11/20 04:00:17;;;;;;;10.33;4.53;;;9.50;99.90;;;;;;4936963;29;20996;-81
2021/11/20 04:02:47;;;;;;;8.87;3.43;;;9.30;1.00;;;;;;4952414;28;20490;-82
2021/11/20 04:05:18;;;;;;;9.43;5.00;;;9.40;99.90;;;;;;4950003;29;20454;-81
2021/11/20 04:07:46;;;;;;;10.53;4.27;;;9.40;1.00;;;;;;4942305;29;20478;-79
2021/11/20 04:10:17;;;;;;;11.10;3.83;;;9.30;99.90;;;;;;4929109;29;20501;-81
2021/11/20 04:12:47;;;;;;;6.90;4.30;;;9.20;1.00;;;;;;4947348;29;21000;-81
2021/11/20 04:15:18;;;;;;;7.40;5.17;;;9.20;1.00;;;;;;4934515;29;20517;-81
2021/11/20 04:17:46;;;;;;;7.23;5.00;;;9.30;1.00;;;;;;4936877;28;21200;-81
2021/11/20 04:20:19;;;;;;;10.10;3.47;;;9.30;1.00;;;;;;4935597;29;20815;-81
2021/11/20 04:22:48;;;;;;;9.63;5.10;;;9.40;1.00;;;;;;4959126;29;20461;-81
2021/11/20 04:25:19;;;;;;;8.07;4.17;;;9.40;99.90;;;;;;4937460;29;20521;-82
2021/11/20 04:27:47;;;;;;;5.37;3.30;;;9.40;99.90;;;;;;4948809;29;20475;-82
2021/11/20 04:30:17;;;;;;;10.70;4.63;;;9.50;99.90;;;;;;4935574;29;20451;-81
2021/11/20 04:32:46;;;;;;;7.30;4.10;;;9.50;99.90;;;;;;4934751;29;20449;-82
2021/11/20 04:35:16;;;;;;;10.53;4.37;;;9.40;99.90;;;;;;4942514;28;20856;-81
2021/11/20 04:37:46;;;;;;;10.70;5.17;;;9.40;99.90;;;;;;4949887;28;21203;-82
2021/11/20 04:40:15;;;;;;;5.27;4.47;;;9.40;99.90;;;;;;4954880;28;20511;-82
2021/11/20 04:42:44;;;;;;;9.57;5.03;;;9.30;99.90;;;;;;4955829;29;20459;-81
2021/11/20 04:45:15;;;;;;;8.97;4.73;;;9.30;99.90;;;;;;4956588;28;20475;-82
2021/11/20 04:47:43;;;;;;;10.53;5.07;;;9.30;99.90;;;;;;4956804;29;20482;-80
2021/11/20 04:50:12;;;;;;;9.97;5.37;;;9.30;99.90;;;;;;4958126;28;20456;-82
2021/11/20 04:52:41;;;;;;;8.10;5.00;;;9.30;99.90;;;;;;4937943;29;21012;-81
2021/11/20 04:55:12;;;;;;;10.70;5.50;;;9.40;99.90;;;;;;4956190;29;20463;-79
2021/11/20 04:57:41;;;;;;;8.77;4.63;;;9.50;99.90;;;;;;4956019;29;20477;-82
2021/11/20 05:00:13;;;;;;;9.73;4.03;;;9.50;99.90;;;;;;4948415;29;21112;-80
2021/11/20 05:02:42;;;;;;;7.17;5.23;;;9.60;99.90;;;;;;4963317;28;20454;-82
2021/11/20 05:05:11;;;;;;;9.00;4.30;;;9.60;99.90;;;;;;4940552;28;20510;-80
2021/11/20 05:07:39;;;;;;;9.40;3.90;;;9.60;99.90;;;;;;4940477;29;20530;-82
2021/11/20 05:10:10;;;;;;;8.23;5.30;;;9.50;99.90;;;;;;4944318;29;20847;-82
2021/11/20 05:12:40;;;;;;;10.93;5.70;;;9.50;99.90;;;;;;4941845;29;20512;-81
2021/11/20 05:15:11;;;;;;;9.80;4.00;;;9.50;99.90;;;;;;4951902;28;20541;-81
2021/11/20 05:17:39;;;;;;;7.57;4.50;;;9.50;99.90;;;;;;4956128;28;20520;-81
2021/11/20 05:20:13;;;;;;;8.13;3.70;;;9.50;99.90;;;;;;4938715;28;20483;-82
2021/11/20 05:22:41;;;;;;;10.80;4.47;;;9.60;99.90;;;;;;4952618;28;20472;-82
2021/11/20 05:25:11;;;;;;;8.03;5.10;;;9.50;99.90;;;;;;4955970;29;20470;-81
2021/11/20 05:27:42;;;;;;;10.73;4.93;;;9.40;99.90;;;;;;4957261;29;20500;-81
2021/11/20 05:30:16;;;;;;;10.60;4.90;;;9.40;99.90;;;;;;4956587;28;20521;-81
2021/11/20 05:32:45;;;;;;;9.77;6.00;;;9.30;99.90;;;;;;4951521;29;20840;-82
2021/11/20 05:35:16;;;;;;;12.60;5.43;;;9.30;99.90;;;;;;4915356;28;20468;-82
2021/11/20 05:37:44;;;;;;;9.90;4.80;;;9.20;99.90;;;;;;4906954;28;1128590;-82
2021/11/20 05:40:15;;;;;;;12.50;6.33;;;9.10;1.00;;;;;;4953818;28;20477;-81
2021/11/20 05:42:47;;;;;;;10.63;4.53;;;9.20;1.00;;;;;;4950936;29;20459;-81
2021/11/20 05:45:19;;;;;;;8.90;4.37;;;9.20;1.00;;;;;;4951966;28;20490;-81
2021/11/20 05:47:47;;;;;;;8.40;4.30;;;9.30;1.00;;;;;;4934525;28;20487;-80
2021/11/20 05:50:23;;;;;;;7.60;4.33;;;9.30;1.00;;;;;;4927711;29;20463;-82
2021/11/20 05:52:52;;;;;;;8.43;5.27;;;9.30;99.90;;;;;;4953538;29;20467;-81
2021/11/20 05:55:22;;;;;;;9.17;4.30;;;9.10;1.00;;;;;;4946424;29;20833;-82
2021/11/20 05:57:56;;;;;;;13.73;6.60;;;9.20;1.00;;;;;;4953232;28;20477;-81
2021/11/20 06:00:26;;;;;;;8.30;3.80;;;9.10;1.00;;;;;;4950117;28;20506;-81
2021/11/20 06:02:57;;;;;;;10.40;5.00;;;9.20;1.00;;;;;;4946771;28;20959;-81
2021/11/20 06:05:25;;;;;;;9.87;4.60;;;9.20;1.00;;;;;;4952459;29;20702;-82
2021/11/20 06:07:54;;;;;;;7.87;4.47;;;9.30;1.00;;;;;;4951611;29;20482;-83
2021/11/20 06:10:22;;;;;;;7.77;4.33;;;9.30;1.00;;;;;;4954244;29;20554;-82
2021/11/20 06:12:50;;;;;;;10.17;5.60;;;9.40;99.90;;;;;;4948832;28;20987;-82
2021/11/20 06:15:20;;;;;;;8.80;4.57;;;9.40;99.90;;;;;;4951259;28;20462;-82
2021/11/20 06:17:48;;;;;;;9.23;4.77;;;9.40;99.90;;;;;;4950919;28;20505;-82
2021/11/20 06:20:16;;;;;;;9.27;4.50;;;9.10;1.00;;;;;;4944864;29;20494;-80
2021/11/20 06:22:45;;;;;;;9.33;4.40;;;9.20;1.00;;;;;;4950677;29;20527;-81
2021/11/20 06:25:14;;;;;;;10.80;4.57;;;9.20;1.00;;;;;;4934149;29;21432;-81
2021/11/20 06:27:42;;;;;;;11.00;4.30;;;9.00;99.90;;;;;;4954490;28;21014;-80
2021/11/20 06:30:13;;;;;;;7.83;3.70;;;8.80;99.90;;;;;;4950075;29;20462;-80
2021/11/20 06:32:43;;;;;;;9.10;4.50;;;8.80;99.90;;;;;;4955474;29;20881;-82
2021/11/20 06:35:14;;;;;;;8.67;4.37;;;8.90;99.90;;;;;;4950140;29;20470;-82
2021/11/20 06:37:44;;;;;;;6.23;3.60;;;9.00;99.90;;;;;;4952921;29;20490;-81
2021/11/20 06:40:16;;;;;;;10.80;4.40;;;9.10;22.90;;;;;;4955237;28;20842;-81
2021/11/20 06:42:47;;;;;;;3.60;2.83;;;9.20;1.00;;;;;;4948807;29;20469;-81
2021/11/20 06:45:19;;;;;;;6.47;3.87;;;9.20;1.00;;;;;;4948278;29;20466;-82
2021/11/20 06:47:49;;;;;;;9.27;4.90;;;9.10;91.80;;;;;;4947275;29;20484;-81
2021/11/20 06:50:18;;;;;;;7.37;4.37;;;9.20;1.00;;;;;;4947318;29;20459;-82
2021/11/20 06:52:46;;;;;;;5.80;3.30;;;9.10;1.00;;;;;;4954977;29;20476;-81
2021/11/20 06:55:16;;;;;;;6.53;4.23;;;9.10;1.00;;;;;;4954686;29;20466;-81
2021/11/20 06:57:54;;;;;;;8.50;4.70;;;9.10;31.60;;;;;;4953763;29;20482;-82
2021/11/20 07:00:28;;;;;;;7.00;4.43;;;9.00;21.90;;;;;;4944530;29;21072;-82
2021/11/20 07:03:01;;;;;;;6.93;3.80;;;9.10;99.90;;;;;;4952590;29;20450;-82
2021/11/20 07:05:32;;;;;;;7.70;4.20;;;9.20;1.00;;;;;;4956250;28;20910;-82
2021/11/20 07:08:01;;;;;;;10.63;4.33;;;9.00;99.90;;;;;;4952106;29;20489;-82
2021/11/20 07:10:31;;;;;;;8.63;5.40;;;9.10;99.90;;;;;;4952471;28;20456;-86
2021/11/20 07:12:59;;;;;;;6.90;4.53;;;9.00;99.90;;;;;;4953329;28;20454;-84
2021/11/20 07:15:28;;;;;;;11.30;5.70;;;9.10;80.60;;;;;;4926457;29;20467;-84
2021/11/20 07:17:57;;;;;;;11.60;5.37;;;9.20;17.80;;;;;;4957502;28;20526;-84
2021/11/20 07:20:29;;;;;;;8.10;4.43;;;9.20;1.00;;;;;;4943679;29;20470;-83
2021/11/20 07:22:57;;;;;;;8.13;4.10;;;9.20;1.00;;;;;;4931143;29;20880;-84
2021/11/20 07:25:27;;;;;;;12.57;4.47;;;9.30;1.00;;;;;;4954777;28;20514;-84
2021/11/20 07:27:57;;;;;;;8.87;6.00;;;9.20;1.00;;;;;;4948608;28;20495;-84
2021/11/20 07:30:27;;;;;;;11.50;5.30;;;9.40;1.00;;;;;;4951065;28;20591;-84
2021/11/20 07:32:56;;;;;;;12.27;6.00;;;9.40;1.00;;;;;;4953153;28;20444;-82
2021/11/20 07:35:28;;;;;;;9.33;4.80;;;9.50;99.90;;;;;;4945107;28;20473;-82
2021/11/20 07:37:57;;;;;;;7.50;4.67;;;9.40;1.00;;;;;;4941126;28;20491;-83
2021/11/20 07:40:28;;;;;;;6.73;4.20;;;9.40;99.90;;;;;;4956531;28;20482;-84
2021/11/20 07:42:56;;;;;;;9.13;4.47;;;9.30;99.90;;;;;;4946553;28;20457;-82
2021/11/20 07:45:25;;;;;;;9.07;5.70;;;9.10;1.00;;;;;;4935196;28;21013;-82
2021/11/20 07:47:54;;;;;;;9.47;5.10;;;9.20;1.00;;;;;;4936064;29;20487;-83
2021/11/20 07:50:22;;;;;;;9.73;4.13;;;9.20;1.00;;;;;;4945863;28;20462;-83
2021/11/20 07:52:52;;;;;;;9.57;4.63;;;9.20;1.00;;;;;;4939209;29;20462;-82
2021/11/20 07:55:20;;;;;;;7.33;4.00;;;9.20;1.00;;;;;;4960264;28;21011;-82
2021/11/20 07:57:49;;;;;;;10.90;5.10;;;9.20;1.00;;;;;;4952856;28;20481;-82
2021/11/20 08:00:19;;;;;;;8.73;5.30;;;9.20;1.00;;;;;;4944205;28;20501;-82
2021/11/20 08:02:47;;;;;;;12.60;5.57;;;9.30;1.00;;;;;;4941700;28;20994;-82
2021/11/20 08:05:17;;;;;;;10.13;4.90;;;9.20;1.00;;;;;;4941206;29;20464;-82
2021/11/20 08:07:46;;;;;;;7.40;3.70;;;9.20;1.00;;;;;;4946065;29;20482;-83
2021/11/20 08:10:16;;;;;;;5.97;3.37;;;9.30;1.00;;;;;;4949564;29;20458;-82
2021/11/20 08:12:45;;;;;;;10.70;4.90;;;9.30;1.00;;;;;;4950504;29;21229;-82
2021/11/20 08:15:14;;;;;;;9.83;4.20;;;9.40;1.00;;;;;;4951894;28;20473;-81
2021/11/20 08:17:43;;;;;;;7.77;4.10;;;9.40;1.00;;;;;;4934691;29;21318;-83
2021/11/20 08:20:15;;;;;;;8.17;4.10;;;9.30;1.00;;;;;;4949143;28;20492;-83
2021/11/20 08:22:44;;;;;;;7.07;3.57;;;9.10;99.90;;;;;;4961282;28;20454;-83
2021/11/20 08:25:16;;;;;;;9.77;5.70;;;9.10;99.90;;;;;;4950257;29;20446;-84
2021/11/20 08:27:46;;;;;;;9.17;4.53;;;9.20;99.90;;;;;;4951264;29;20484;-84
2021/11/20 08:30:17;;;;;;;9.17;4.30;;;9.30;1.00;;;;;;4951902;28;20906;-84
2021/11/20 08:32:46;;;;;;;10.23;4.40;;;9.20;1.00;;;;;;4938689;28;20472;-83
2021/11/20 08:35:18;;;;;;;8.33;4.10;;;9.20;16.30;;;;;;4944829;29;20490;-83
2021/11/20 08:37:46;;;;;;;6.07;4.10;;;9.20;51.20;;;;;;4945873;29;20477;-83
2021/11/20 08:40:19;;;;;;;7.27;3.20;;;9.10;99.90;;;;;;4936494;29;20486;-84
2021/11/20 08:42:48;;;;;;;7.13;4.20;;;9.20;99.90;;;;;;4952700;29;20462;-84
2021/11/20 08:45:20;;;;;;;7.23;3.40;;;9.20;41.10;;;;;;4954229;29;20464;-84
2021/11/20 08:47:49;;;;;;;5.00;2.80;;;9.10;99.90;;;;;;4937217;29;20795;-83
2021/11/20 08:50:21;;;;;;;5.40;2.87;;;9.20;99.90;;;;;;4941090;29;20470;-83
2021/11/20 08:52:49;;;;;;;4.63;2.80;;;9.20;99.90;;;;;;4960359;28;20547;-81
2021/11/20 08:55:24;;;;;;;7.90;3.70;;;9.10;99.90;;;;;;4945729;29;20470;-82
2021/11/20 08:57:53;;;;;;;5.53;3.00;;;9.10;1.00;;;;;;4952522;28;20487;-85
2021/11/20 09:00:24;;;;;;;6.33;2.90;;;9.30;99.90;;;;;;4940098;29;20493;-81
2021/11/20 09:02:55;;;;;;;5.63;2.80;;;9.20;1.00;;;;;;4936246;29;20454;-80
2021/11/20 09:05:30;;;;;;;4.20;3.17;;;9.20;1.00;;;;;;4947538;29;20454;-85
2021/11/20 09:08:03;;;;;;;5.77;2.57;;;9.20;1.00;;;;;;4953436;28;20482;-85
2021/11/20 09:10:38;;;;;;;3.90;2.50;;;9.40;1.00;;;;;;4955528;29;20867;-83
2021/11/20 09:13:14;;;;;;;3.73;2.13;;;9.40;99.90;;;;;;4958747;28;20995;-84
2021/11/20 09:15:45;;;;;;;2.23;1.83;;;9.30;99.90;;;;;;4955672;29;20455;-83
2021/11/20 09:18:14;;;;;;;5.83;2.13;;;9.20;1.00;;;;;;4956569;29;20485;-83
2021/11/20 09:20:42;;;;;;;3.87;1.90;;;9.20;1.00;;;;;;4956411;29;20495;-84
2021/11/20 09:23:11;;;;;;;3.30;3.00;;;9.20;99.90;;;;;;4952553;29;20466;-82
2021/11/20 09:25:41;;;;;;;5.00;2.30;;;9.20;1.00;;;;;;4952141;28;20467;-85
2021/11/20 09:28:30;;;;;;;3.33;1.80;;;9.00;99.90;;;;;;4956794;28;20490;-82
2021/11/20 09:31:02;;;;;;;2.70;1.50;;;9.00;1.00;;;;;;4957343;28;20447;-82
2021/11/20 09:33:30;;;;;;;1.70;1.40;;;9.20;1.00;;;;;;4952233;28;20464;-82
2021/11/20 09:35:59;;;;;;;3.17;2.13;;;9.30;1.00;;;;;;4949387;29;20471;-84
2021/11/20 09:38:28;;;;;;;2.83;1.20;;;9.20;1.00;;;;;;4948259;29;20491;-84
2021/11/20 09:41:00;;;;;;;2.43;1.60;;;9.20;99.90;;;;;;4939747;29;20490;-84
2021/11/20 09:43:32;;;;;;;1.93;1.30;;;9.20;96.60;;;;;;4958271;29;20461;-83
2021/11/20 09:46:10;;;;;;;2.70;1.20;;;9.20;99.90;;;;;;4950503;28;20474;-84
2021/11/20 09:48:40;;;;;;;2.10;1.33;;;9.30;3.80;;;;;;4955704;28;20498;-82
2021/11/20 09:51:29;;;;;;;1.40;1.10;;;9.40;1.00;;;;;;4958457;29;20444;-83
2021/11/20 09:53:59;;;;;;;1.90;1.67;;;9.40;1.00;;;;;;4950779;29;20472;-83
2021/11/20 09:56:33;;;;;;;2.10;1.40;;;9.40;1.00;;;;;;4953757;28;20474;-84
2021/11/20 09:59:04;;;;;;;1.60;1.13;;;9.40;1.00;;;;;;4955633;29;20470;-83
2021/11/20 10:01:47;;;;;;;1.40;1.00;;;9.10;78.30;;;;;;4959889;28;20481;-83
2021/11/20 10:04:24;;;;;;;1.90;1.00;;;8.90;99.90;;;;;;4951781;28;20450;-81
2021/11/20 10:07:06;;;;;;;1.73;1.10;;;8.60;99.90;;;;;;4956773;28;20473;-82
2021/11/20 10:09:35;;;;;;;2.30;1.67;;;8.50;99.90;;;;;;4956507;29;20482;-83
2021/11/20 10:12:17;;;;;;;2.10;1.10;;;8.70;99.90;;;;;;4951066;28;20965;-82
2021/11/20 10:14:49;;;;;;;1.37;1.27;;;8.80;99.90;;;;;;4955973;29;20501;-83
2021/11/20 10:17:43;;;;;;;1.27;1.00;;;8.90;1.00;;;;;;4953406;28;21230;-82
2021/11/20 10:20:31;;;;;;;1.80;1.20;;;9.10;99.90;;;;;;4951590;28;20475;-83
2021/11/20 10:23:04;;;;;;;1.30;1.20;;;9.30;99.90;;;;;;4954165;29;20481;-84
2021/11/20 10:26:04;;;;;;;1.67;1.30;;;9.30;7.00;;;;;;4947707;28;20481;-83
2021/11/20 10:28:41;;;;;;;1.33;1.07;;;9.30;1.00;;;;;;4944651;28;21080;-83
2021/11/20 10:31:13;;;;;;;2.17;1.40;;;9.40;99.90;;;;;;4935590;29;21039;-80
2021/11/20 10:33:45;;;;;;;1.67;1.20;;;9.40;1.00;;;;;;4936476;29;20462;-82
2021/11/20 10:36:20;;;;;;;2.67;1.50;;;9.30;1.00;;;;;;4935566;29;20471;-84
2021/11/20 10:38:55;;;;;;;2.47;1.30;;;9.30;83.90;;;;;;4932288;29;21163;-82
2021/11/20 10:41:31;;;;;;;1.53;1.43;;;9.40;1.00;;;;;;4947221;29;20487;-84
2021/11/20 10:44:26;;;;;;;2.60;1.40;;;9.20;99.90;;;;;;4945326;29;20458;-81
2021/11/20 10:47:01;;;;;;;2.70;1.80;;;9.20;99.90;;;;;;4954192;28;20499;-82
2021/11/20 10:49:57;;;;;;;2.30;1.67;;;9.40;88.30;;;;;;4956051;28;20549;-81
2021/11/20 10:52:48;;;;;;;3.10;1.60;;;9.40;1.00;;;;;;4952663;29;20497;-82
2021/11/20 10:55:24;;;;;;;2.40;1.60;;;9.40;1.00;;;;;;4952105;29;20459;-80
2021/11/20 10:58:27;;;;;;;3.10;1.87;;;9.40;1.00;;;;;;4951142;29;20474;-82
2021/11/20 11:01:34;;;;;;;3.20;2.60;;;9.30;1.00;;;;;;4929985;29;20485;-79
2021/11/20 11:04:15;;;;;;;2.70;1.80;;;9.20;1.00;;;;;;4930751;28;20468;-79
2021/11/20 11:06:54;;;;;;;3.77;2.23;;;9.20;74.10;;;;;;4948227;28;20479;-81
2021/11/20 11:09:32;;;;;;;3.63;2.20;;;9.10;99.90;;;;;;4951011;29;20446;-81
2021/11/20 11:12:10;;;;;;;2.23;1.97;;;9.00;99.90;;;;;;4943246;29;20847;-82
2021/11/20 11:14:56;;;;;;;3.23;2.30;;;9.20;5.40;;;;;;4945254;29;20510;-81
2021/11/20 11:17:57;;;;;;;5.83;2.83;;;9.30;1.00;;;;;;4954172;29;20506;-81
2021/11/20 11:20:32;;;;;;;4.80;2.20;;;9.40;1.00;;;;;;4954293;29;20478;-80
2021/11/20 11:23:07;;;;;;;5.03;2.30;;;9.40;99.90;;;;;;4953493;29;20527;-82
2021/11/20 11:25:46;;;;;;;3.67;3.13;;;9.30;1.00;;;;;;4931305;29;20482;-81
2021/11/20 11:28:35;;;;;;;2.77;1.97;;;9.30;1.00;;;;;;4946630;28;20483;-83
2021/11/20 11:31:29;;;;;;;2.17;1.97;;;9.40;1.00;;;;;;4951989;28;20467;-82
2021/11/20 11:34:04;;;;;;;4.63;2.47;;;9.40;99.90;;;;;;4955209;29;20440;-81
2021/11/20 11:36:40;;;;;;;1.90;1.47;;;9.50;99.90;;;;;;4955065;29;20479;-82
2021/11/20 11:39:38;;;;;;;3.63;2.07;;;9.50;99.90;;;;;;4950042;28;20473;-82
2021/11/20 11:42:34;;;;;;;6.40;2.40;;;9.40;99.90;;;;;;4947237;29;20491;-81
2021/11/20 11:45:20;;;;;;;3.33;2.60;;;9.50;99.90;;;;;;4933849;29;20469;-81
2021/11/20 11:47:53;;;;;;;6.07;2.60;;;9.60;99.90;;;;;;4938770;28;20576;-81
2021/11/20 11:50:33;;;;;;;6.10;3.60;;;9.40;99.90;;;;;;4944021;28;20539;-82
2021/11/20 11:53:23;;;;;;;4.80;3.23;;;9.20;1.00;;;;;;4956272;28;20513;-82
2021/11/20 11:55:53;;;;;;;3.47;2.43;;;9.20;1.00;;;;;;4962721;28;20863;-84
2021/11/20 11:58:47;;;;;;;5.83;3.07;;;9.10;1.00;;;;;;4951012;29;20482;-84
2021/11/20 12:01:20;;;;;;;3.17;2.57;;;9.20;1.00;;;;;;4951359;28;20526;-84
2021/11/20 12:04:01;;;;;;;4.63;2.13;;;9.30;99.90;;;;;;4957662;28;20468;-83
2021/11/20 12:06:55;;;;;;;4.87;2.60;;;9.30;99.90;;;;;;4954593;28;20471;-82
2021/11/20 12:09:35;;;;;;;3.93;2.30;;;9.20;99.90;;;;;;4947653;29;20469;-83
2021/11/20 12:12:11;;;;;;;3.90;3.10;;;9.20;99.90;;;;;;4946155;29;20461;-82
2021/11/20 12:14:44;;;;;;;5.13;3.17;;;9.20;1.00;;;;;;4951126;29;20469;-83
2021/11/20 12:17:31;;;;;;;3.03;2.73;;;9.20;1.00;;;;;;4952514;29;20487;-82
2021/11/20 12:20:13;;;;;;;5.40;2.63;;;9.30;1.00;;;;;;4943478;29;20523;-84
2021/11/20 12:22:55;;;;;;;31.20;14.70;;;9.30;1.00;;;;;;4955233;28;20851;-83
2021/11/20 12:25:42;;;;;;;5.07;3.90;;;9.30;1.00;;;;;;4955773;28;20505;-84
2021/11/20 12:28:28;;;;;;;5.33;3.27;;;9.20;1.00;;;;;;4935687;29;20489;-83
2021/11/20 12:31:30;;;;;;;3.03;2.20;;;9.20;1.00;;;;;;4952423;29;20454;-83
2021/11/20 12:34:20;;;;;;;5.23;2.77;;;9.30;99.90;;;;;;4949205;28;20541;-82
2021/11/20 12:37:07;;;;;;;3.07;2.40;;;9.40;99.90;;;;;;4917119;29;20492;-84
2021/11/20 12:39:59;;;;;;;4.93;3.10;;;9.20;99.90;;;;;;4952393;28;20469;-84
2021/11/20 12:43:05;;;;;;;5.00;2.70;;;9.40;99.90;;;;;;4952532;28;20476;-81
2021/11/20 12:45:58;;;;;;;3.47;2.53;;;9.30;99.90;;;;;;4957565;28;20461;-82
2021/11/20 12:48:59;;;;;;;5.77;2.50;;;9.20;99.90;;;;;;4955509;28;20478;-81
2021/11/20 12:51:46;;;;;;;2.23;2.03;;;9.10;99.90;;;;;;4964390;28;20461;-81
2021/11/20 12:54:25;;;;;;;3.37;2.50;;;9.20;99.90;;;;;;4953171;28;20469;-80
2021/11/20 12:57:10;;;;;;;3.10;2.30;;;9.30;99.90;;;;;;4951713;28;20500;-81
2021/11/20 12:59:44;;;;;;;4.20;2.50;;;9.20;99.90;;;;;;4955232;28;20463;-80
2021/11/20 13:02:45;;;;;;;3.90;3.03;;;9.30;99.90;;;;;;4958380;28;20478;-80
2021/11/20 13:05:24;;;;;;;3.30;2.70;;;9.40;99.90;;;;;;4960514;28;20454;-80
2021/11/20 13:07:55;;;;;;;4.07;2.90;;;9.40;99.90;;;;;;4958313;28;20481;-81
2021/11/20 13:10:38;;;;;;;2.23;2.03;;;9.40;99.90;;;;;;4948326;28;20452;-80
2021/11/20 13:13:20;;;;;;;3.23;2.67;;;9.20;99.90;;;;;;4957876;28;20978;-81
2021/11/20 13:16:28;;;;;;;5.60;3.27;;;9.10;99.90;;;;;;4956604;28;20457;-80
2021/11/20 13:19:04;;;;;;;2.30;2.10;;;8.80;1.00;;;;;;4949287;28;20470;-80
2021/11/20 13:21:38;;;;;;;3.33;2.40;;;8.70;1.00;;;;;;4956677;28;20489;-81
2021/11/20 13:24:08;;;;;;;2.93;2.33;;;9.00;99.90;;;;;;4958177;28;20548;-80
2021/11/20 13:26:58;;;;;;;4.17;3.23;;;9.20;99.90;;;;;;4945593;28;20833;-81
2021/11/20 13:29:31;;;;;;;5.50;3.47;;;9.20;99.90;;;;;;4965223;28;20451;-82
2021/11/20 13:32:01;;;;;;;3.03;2.40;;;9.30;99.90;;;;;;4956699;28;20456;-84
2021/11/20 13:34:31;;;;;;;5.93;5.33;;;9.30;99.90;;;;;;4960584;28;20477;-84
2021/11/20 13:36:59;;;;;;;4.30;2.40;;;9.40;96.50;;;;;;4966936;28;20478;-84
2021/11/20 13:39:28;;;;;;;4.20;3.57;;;9.40;70.70;;;;;;4953287;28;20543;-82
2021/11/20 13:41:58;;;;;;;3.47;3.17;;;9.20;99.90;;;;;;4937806;29;20467;-83
2021/11/20 13:44:29;;;;;;;3.47;2.43;;;9.10;99.90;;;;;;4947644;29;20478;-84